Nova Veneza, Brazil
Current Conditions -  °F | °C
As of 4:35 PM on Monday 22 Dec 2014 (Local Time) from SBCM Reporting Station
Broken Clouds Broken Clouds  
Wind Chill: 75°   Ceiling: 10000
Heat Index: 75°   Visibility: 6mi
Dew Point: 64°   Wind: 7mph
Humidity: 69%   Direction: 180°S
Pressure: 29.94"   Gusts: NA
Location:  28.64°S, 49.5°W
Report Text: SBCM 221835Z 18006KT 9999 SCT030 BKN100 24/18 Q1014
Loading
Personal Weather Stations






























Interactive Weather Map New forecast layout! Learn more

10-Day Weather Forecast

Advertisements
Track Severe Weather on mobile